createdAt,value
2022-10-07T00:00:51.985Z,99810.94
2022-10-07T00:03:20.094Z,99810.78
2022-10-07T00:05:46.786Z,99806.47
2022-10-07T00:08:13.440Z,99802.44
2022-10-07T00:10:44.026Z,99797.63
2022-10-07T00:13:12.217Z,99795.88
2022-10-07T00:15:39.191Z,99792.59
2022-10-07T00:18:06.120Z,99788.84
2022-10-07T00:20:38.493Z,99788.34
2022-10-07T00:23:06.534Z,99787.59
2022-10-07T00:25:36.861Z,99778.75
2022-10-07T00:28:04.909Z,99777.91
2022-10-07T00:30:31.884Z,99776.91
2022-10-07T00:32:58.467Z,99777.28
2022-10-07T00:35:24.970Z,99777.81
2022-10-07T00:37:51.403Z,99774.09
2022-10-07T00:40:18.031Z,99771.94
2022-10-07T00:42:44.488Z,99780.75
2022-10-07T00:45:16.261Z,99771.16
2022-10-07T00:47:48.339Z,99769.06
2022-10-07T00:50:22.406Z,99774.44
2022-10-07T00:52:56.568Z,99770.00
2022-10-07T00:55:26.237Z,99764.69
2022-10-07T00:57:55.237Z,99769.47
2022-10-07T01:00:24.091Z,99766.78
2022-10-07T01:02:51.439Z,99749.84
2022-10-07T01:05:19.054Z,99759.38
2022-10-07T01:07:47.524Z,99754.22
2022-10-07T01:10:18.768Z,99761.47
2022-10-07T01:13:05.213Z,99752.03
2022-10-07T01:15:37.555Z,99749.06
2022-10-07T01:18:18.287Z,99748.91
2022-10-07T01:20:59.602Z,99747.84
2022-10-07T01:23:38.291Z,99741.84
2022-10-07T01:26:22.167Z,99729.94
2022-10-07T01:29:12.512Z,99732.13
2022-10-07T01:31:46.917Z,99736.38
2022-10-07T01:34:14.730Z,99726.06
2022-10-07T01:36:42.999Z,99723.34
2022-10-07T01:39:14.137Z,99719.97
2022-10-07T01:41:41.413Z,99714.81
2022-10-07T01:44:10.076Z,99709.84
2022-10-07T01:46:38.034Z,99710.28
2022-10-07T01:49:05.786Z,99704.97
2022-10-07T01:51:35.592Z,99696.97
2022-10-07T01:54:34.544Z,99692.81
2022-10-07T01:57:11.279Z,99681.72
2022-10-07T01:59:37.704Z,99695.13
2022-10-07T02:02:22.100Z,99688.28
2022-10-07T02:05:09.702Z,99677.13
2022-10-07T02:07:52.226Z,99670.25
2022-10-07T02:10:31.783Z,99673.75
2022-10-07T02:13:13.422Z,99666.28
2022-10-07T02:16:05.528Z,99670.25
2022-10-07T02:18:34.483Z,99663.16
2022-10-07T02:21:05.050Z,99659.44
2022-10-07T02:23:34.324Z,99654.97
2022-10-07T02:26:04.137Z,99653.44
2022-10-07T02:28:32.093Z,99659.25
2022-10-07T02:31:01.769Z,99657.72
2022-10-07T02:33:29.861Z,99660.03
2022-10-07T02:36:02.346Z,99657.47
2022-10-07T02:38:29.711Z,99653.19
2022-10-07T02:41:11.660Z,99650.47
2022-10-07T02:43:47.352Z,99642.63
2022-10-07T02:46:18.855Z,99644.56
2022-10-07T02:48:50.306Z,99641.63
2022-10-07T02:51:21.421Z,99648.38
2022-10-07T02:53:51.370Z,99646.81
2022-10-07T02:56:21.006Z,99638.53
2022-10-07T02:58:48.546Z,99641.75
2022-10-07T03:01:22.921Z,99637.28
2022-10-07T03:03:49.427Z,99636.06
2022-10-07T03:06:19.275Z,99621.38
2022-10-07T03:08:48.114Z,99627.69
2022-10-07T03:11:14.682Z,99630.50
2022-10-07T03:13:41.205Z,99627.19
2022-10-07T03:16:07.752Z,99622.88
2022-10-07T03:18:34.501Z,99627.41
2022-10-07T03:21:01.026Z,99629.69
2022-10-07T03:23:29.232Z,99622.13
2022-10-07T03:25:58.157Z,99624.19
2022-10-07T03:28:26.520Z,99615.84
2022-10-07T03:30:53.746Z,99615.38
2022-10-07T03:33:25.713Z,99622.41
2022-10-07T03:35:52.133Z,99617.88
2022-10-07T03:38:18.576Z,99618.16
2022-10-07T03:40:45.071Z,99613.38
2022-10-07T03:43:11.519Z,99606.97
2022-10-07T03:45:44.345Z,99602.94
2022-10-07T03:48:11.228Z,99604.78
2022-10-07T03:50:38.280Z,99609.56
2022-10-07T03:53:05.062Z,99602.53
2022-10-07T03:55:31.626Z,99592.16
2022-10-07T03:57:59.748Z,99594.50
2022-10-07T04:00:27.505Z,99591.47
2022-10-07T04:02:53.933Z,99591.50
2022-10-07T04:05:21.493Z,99595.53
2022-10-07T04:07:49.948Z,99589.72
2022-10-07T04:10:18.496Z,99583.13
2022-10-07T04:12:45.586Z,99586.69
2022-10-07T04:15:14.969Z,99583.72
2022-10-07T04:17:42.307Z,99578.88
2022-10-07T04:20:10.100Z,99577.34
2022-10-07T04:22:36.804Z,99578.19
2022-10-07T04:25:22.979Z,99578.94
2022-10-07T04:27:56.003Z,99571.84
2022-10-07T04:30:24.469Z,99563.25
2022-10-07T04:32:51.446Z,99565.22
2022-10-07T04:35:20.089Z,99571.91
2022-10-07T04:37:53.454Z,99565.28
2022-10-07T04:40:21.285Z,99562.97
2022-10-07T04:43:06.889Z,99568.00
2022-10-07T04:45:35.471Z,99562.44
2022-10-07T04:48:04.103Z,99555.69
2022-10-07T04:50:30.533Z,99557.72
2022-10-07T04:52:57.149Z,99544.25
2022-10-07T04:55:23.540Z,99550.88
2022-10-07T04:57:50.020Z,99551.59
2022-10-07T05:00:16.603Z,99550.88
2022-10-07T05:02:46.405Z,99552.19
2022-10-07T05:05:12.838Z,99552.72
2022-10-07T05:07:39.222Z,99553.47
2022-10-07T05:10:06.201Z,99546.88
2022-10-07T05:12:32.609Z,99550.34
2022-10-07T05:14:59.252Z,99541.53
2022-10-07T05:17:25.775Z,99541.44
2022-10-07T05:19:52.168Z,99544.25
2022-10-07T05:22:18.590Z,99538.63
2022-10-07T05:24:44.955Z,99535.50
2022-10-07T05:27:13.393Z,99536.78
2022-10-07T05:29:40.678Z,99541.59
2022-10-07T05:32:07.377Z,99536.03
2022-10-07T05:34:33.909Z,99543.06
2022-10-07T05:37:00.444Z,99535.44
2022-10-07T05:39:27.249Z,99535.44
2022-10-07T05:41:53.736Z,99530.13
2022-10-07T05:47:01.963Z,99530.72
2022-10-07T05:49:28.650Z,99523.91
2022-10-07T05:51:55.058Z,99520.47
2022-10-07T05:54:22.514Z,99517.16
2022-10-07T05:56:49.400Z,99517.28
2022-10-07T05:59:15.794Z,99519.59
2022-10-07T06:01:42.997Z,99523.81
2022-10-07T06:04:09.446Z,99523.91
2022-10-07T06:06:36.452Z,99528.16
2022-10-07T06:09:21.417Z,99524.25
2022-10-07T06:12:07.689Z,99529.06
2022-10-07T06:14:34.114Z,99523.75
2022-10-07T06:17:00.560Z,99522.47
2022-10-07T06:19:27.235Z,99523.41
2022-10-07T06:21:53.684Z,99520.31
2022-10-07T06:24:20.265Z,99521.97
2022-10-07T06:26:46.703Z,99517.50
2022-10-07T06:29:13.169Z,99514.72
2022-10-07T06:31:39.660Z,99501.72
2022-10-07T06:34:06.142Z,99516.91
2022-10-07T06:36:32.530Z,99513.91
2022-10-07T06:38:58.915Z,99511.50
2022-10-07T06:41:25.869Z,99513.38
2022-10-07T06:43:57.210Z,99512.16
2022-10-07T06:46:23.798Z,99510.56
2022-10-07T06:48:50.365Z,99508.72
2022-10-07T06:51:19.960Z,99512.03
2022-10-07T06:53:51.557Z,99511.19
2022-10-07T06:56:18.087Z,99505.16
2022-10-07T06:58:44.627Z,99508.28
2022-10-07T07:01:12.887Z,99505.91
2022-10-07T07:03:40.593Z,99503.41
2022-10-07T07:06:08.470Z,99497.84
2022-10-07T07:08:35.349Z,99502.84
2022-10-07T07:11:38.253Z,99499.72
2022-10-07T07:14:08.070Z,99498.81
2022-10-07T07:16:35.574Z,99492.88
2022-10-07T07:19:08.595Z,99494.69
2022-10-07T07:21:38.147Z,99495.94
2022-10-07T07:24:06.183Z,99490.38
2022-10-07T07:26:32.581Z,99490.66
2022-10-07T07:29:07.292Z,99482.31
2022-10-07T07:31:38.871Z,99477.19
2022-10-07T07:34:08.709Z,99474.31
2022-10-07T07:36:36.319Z,99471.81
2022-10-07T07:39:07.059Z,99475.38
2022-10-07T07:41:36.618Z,99474.78
2022-10-07T07:44:05.335Z,99470.41
2022-10-07T07:46:40.794Z,99464.59
2022-10-07T07:49:10.401Z,99471.66
2022-10-07T07:51:37.422Z,99468.38
2022-10-07T07:54:04.437Z,99471.38
2022-10-07T07:56:33.812Z,99470.34
2022-10-07T07:59:02.505Z,99469.41
2022-10-07T08:01:32.027Z,99462.63
2022-10-07T08:03:59.307Z,99451.56
2022-10-07T08:06:27.939Z,99454.91
2022-10-07T08:08:57.358Z,99452.63
2022-10-07T08:11:24.302Z,99453.38
2022-10-07T08:13:51.563Z,99453.50
2022-10-07T08:16:20.655Z,99446.59
2022-10-07T08:18:49.312Z,99454.63
2022-10-07T08:21:18.414Z,99460.03
2022-10-07T08:23:45.131Z,99457.72
2022-10-07T08:26:11.680Z,99444.19
2022-10-07T08:28:39.146Z,99437.50
2022-10-07T08:31:11.636Z,99432.31
2022-10-07T08:33:40.703Z,99426.00
2022-10-07T08:36:08.798Z,99434.56
2022-10-07T08:38:37.217Z,99430.97
2022-10-07T08:41:09.962Z,99426.63
2022-10-07T08:43:45.151Z,99423.31
2022-10-07T08:46:17.553Z,99426.34
2022-10-07T08:48:52.174Z,99420.09
2022-10-07T08:51:24.519Z,99417.13
2022-10-07T08:53:56.278Z,99425.53
2022-10-07T08:56:24.541Z,99422.97
2022-10-07T08:59:06.217Z,99416.53
2022-10-07T09:01:41.708Z,99414.59
2022-10-07T09:04:33.132Z,99409.19
2022-10-07T09:07:13.339Z,99404.44
2022-10-07T09:09:46.739Z,99407.66
2022-10-07T09:12:23.226Z,99398.94
2022-10-07T09:14:54.786Z,99394.28
2022-10-07T09:17:35.078Z,99393.31
2022-10-07T09:20:11.729Z,99389.22
2022-10-07T09:22:39.723Z,99383.56
2022-10-07T09:25:13.396Z,99375.63
2022-10-07T09:27:39.932Z,99377.06
2022-10-07T09:30:07.058Z,99367.09
2022-10-07T09:32:40.300Z,99374.19
2022-10-07T09:35:07.064Z,99368.72
2022-10-07T09:37:34.106Z,99365.78
2022-10-07T09:40:22.026Z,99362.41
2022-10-07T09:42:49.735Z,99358.84
2022-10-07T09:45:23.075Z,99354.94
2022-10-07T09:47:55.482Z,99355.84
2022-10-07T09:50:34.185Z,99345.63
2022-10-07T09:53:01.803Z,99349.94
2022-10-07T09:55:37.854Z,99341.81
2022-10-07T09:58:25.405Z,99345.56
2022-10-07T10:00:54.458Z,99337.13
2022-10-07T10:03:28.079Z,99336.81
2022-10-07T10:05:59.743Z,99325.75
2022-10-07T10:08:32.425Z,99322.06
2022-10-07T10:11:01.610Z,99323.53
2022-10-07T10:13:36.843Z,99314.69
2022-10-07T10:16:06.634Z,99313.22
2022-10-07T10:18:37.611Z,99304.34
2022-10-07T10:21:29.866Z,99301.41
2022-10-07T10:24:03.749Z,99300.66
2022-10-07T10:26:54.979Z,99298.47
2022-10-07T10:29:49.524Z,99296.25
2022-10-07T10:32:42.373Z,99298.47
2022-10-07T10:35:14.733Z,99291.47
2022-10-07T10:37:41.478Z,99291.03
2022-10-07T10:40:23.104Z,99285.94
2022-10-07T10:43:30.948Z,99277.44
2022-10-07T10:46:05.559Z,99282.56
2022-10-07T10:48:44.456Z,99265.22
2022-10-07T10:51:17.059Z,99262.28
2022-10-07T10:53:52.241Z,99261.94
2022-10-07T10:56:58.321Z,99258.53
2022-10-07T10:59:33.468Z,99247.44
2022-10-07T11:02:29.468Z,99246.63
2022-10-07T11:05:08.790Z,99237.63
2022-10-07T11:07:50.989Z,99232.09
2022-10-07T11:10:24.120Z,99230.50
2022-10-07T11:12:58.066Z,99219.31
2022-10-07T11:15:24.488Z,99214.91
2022-10-07T11:17:54.611Z,99215.94
2022-10-07T11:20:32.365Z,99205.50
2022-10-07T11:23:05.466Z,99212.06
2022-10-07T11:25:38.861Z,99207.59
2022-10-07T11:28:19.515Z,99199.47
2022-10-07T11:30:58.019Z,99196.56
2022-10-07T11:33:32.539Z,99196.56
2022-10-07T11:36:13.832Z,99190.63
2022-10-07T11:38:42.085Z,99190.00
2022-10-07T11:41:31.564Z,99176.69
2022-10-07T11:44:04.580Z,99177.63
2022-10-07T11:46:36.163Z,99170.47
2022-10-07T11:49:15.762Z,99171.19
2022-10-07T11:51:57.680Z,99160.66
2022-10-07T11:54:27.509Z,99161.66
2022-10-07T11:56:58.378Z,99169.19
2022-10-07T11:59:51.003Z,99146.94
2022-10-07T12:02:29.610Z,99140.91
2022-10-07T12:04:57.559Z,99140.81
2022-10-07T12:07:42.259Z,99135.28
2022-10-07T12:10:18.319Z,99135.22
2022-10-07T12:12:45.561Z,99127.47
2022-10-07T12:15:40.036Z,99121.22
2022-10-07T12:18:06.395Z,99121.63
2022-10-07T12:20:51.180Z,99116.31
2022-10-07T12:23:20.619Z,99115.19
2022-10-07T12:25:59.500Z,99114.72
2022-10-07T12:28:48.707Z,99103.25
2022-10-07T12:31:15.259Z,99097.28
2022-10-07T12:34:10.031Z,99092.88
2022-10-07T12:36:41.961Z,99092.31
2022-10-07T12:39:09.665Z,99089.75
2022-10-07T12:41:39.720Z,99087.50
2022-10-07T12:44:35.563Z,99085.56
2022-10-07T12:47:08.320Z,99083.09
2022-10-07T12:49:45.560Z,99073.81
2022-10-07T12:52:20.080Z,99080.53
2022-10-07T12:54:53.795Z,99074.66
2022-10-07T12:57:23.286Z,99077.94
2022-10-07T12:59:55.595Z,99067.56
2022-10-07T13:03:03.390Z,99057.63
2022-10-07T13:05:35.779Z,99058.84
2022-10-07T13:08:33.848Z,99055.81
2022-10-07T13:11:18.190Z,99050.78
2022-10-07T13:13:50.326Z,99048.91
2022-10-07T13:16:27.494Z,99044.56
2022-10-07T13:19:03.953Z,99044.84
2022-10-07T13:21:39.561Z,99038.59
2022-10-07T13:24:06.180Z,99029.34
2022-10-07T13:26:33.342Z,99022.69
2022-10-07T13:29:01.194Z,99016.88
2022-10-07T13:31:30.706Z,99021.34
2022-10-07T13:33:59.275Z,99007.72
2022-10-07T13:36:28.449Z,99009.91
2022-10-07T13:39:12.453Z,99012.88
2022-10-07T13:41:43.928Z,99004.75
2022-10-07T13:44:14.340Z,98992.19
2022-10-07T13:46:53.129Z,98997.69
2022-10-07T13:49:26.882Z,98990.72
2022-10-07T13:51:59.355Z,98982.25
2022-10-07T13:54:29.458Z,98986.22
2022-10-07T13:56:56.463Z,98983.03
2022-10-07T13:59:23.713Z,98974.53
2022-10-07T14:01:51.191Z,98973.53
2022-10-07T14:04:26.727Z,98970.19
2022-10-07T14:07:12.628Z,98960.72
2022-10-07T14:09:48.320Z,98965.53
2022-10-07T14:12:20.355Z,98965.53
2022-10-07T14:14:49.841Z,98960.28
2022-10-07T14:17:28.459Z,98952.22
2022-10-07T14:19:59.543Z,98948.63
2022-10-07T14:22:33.779Z,98946.75
2022-10-07T14:25:02.275Z,98937.22
2022-10-07T14:27:54.126Z,98937.25
2022-10-07T14:30:59.565Z,98921.44
2022-10-07T14:33:47.238Z,98924.00
2022-10-07T14:36:15.792Z,98925.09
2022-10-07T14:38:44.122Z,98922.09
2022-10-07T14:41:11.304Z,98915.53
2022-10-07T14:43:40.135Z,98919.94
2022-10-07T14:46:08.172Z,98914.47
2022-10-07T14:48:35.001Z,98908.63
2022-10-07T14:51:01.689Z,98911.22
2022-10-07T14:53:28.583Z,98902.41
2022-10-07T14:55:55.883Z,98911.25
2022-10-07T14:58:22.234Z,98910.19
2022-10-07T15:00:49.526Z,98908.72
2022-10-07T15:03:15.893Z,98895.09
2022-10-07T15:05:42.415Z,98895.09
2022-10-07T15:08:11.741Z,98898.09
2022-10-07T15:10:41.191Z,98892.25
2022-10-07T15:13:13.278Z,98886.75
2022-10-07T15:15:44.621Z,98888.25
2022-10-07T15:18:12.250Z,98878.34
2022-10-07T15:20:40.072Z,98883.88
2022-10-07T15:23:07.927Z,98882.44
2022-10-07T15:25:35.621Z,98880.25
2022-10-07T15:28:02.581Z,98879.50
2022-10-07T15:30:29.726Z,98873.97
2022-10-07T15:32:57.737Z,98874.00
2022-10-07T15:35:25.588Z,98870.69
2022-10-07T15:37:52.739Z,98862.63
2022-10-07T15:40:19.347Z,98865.91
2022-10-07T15:42:45.925Z,98860.06
2022-10-07T15:45:12.810Z,98860.06
2022-10-07T15:47:39.475Z,98859.72
2022-10-07T15:50:06.987Z,98849.06
2022-10-07T15:52:33.487Z,98860.50
2022-10-07T15:55:02.652Z,98857.16
2022-10-07T15:57:33.083Z,98867.81
2022-10-07T15:59:59.644Z,98864.13
2022-10-07T16:02:26.220Z,98861.53
2022-10-07T16:04:52.694Z,98855.66
2022-10-07T16:07:19.091Z,98871.00
2022-10-07T16:09:45.553Z,98866.59
2022-10-07T16:12:12.915Z,98863.25
2022-10-07T16:14:39.254Z,98867.25
2022-10-07T16:17:05.656Z,98874.56
2022-10-07T16:19:32.042Z,98874.50
2022-10-07T16:21:58.499Z,98879.19
2022-10-07T16:24:24.951Z,98885.34
2022-10-07T16:26:51.514Z,98880.25
2022-10-07T16:29:41.238Z,98865.28
2022-10-07T16:32:10.718Z,98872.56
2022-10-07T16:34:39.113Z,98871.47
2022-10-07T16:37:06.075Z,98862.31
2022-10-07T16:39:32.662Z,98873.69
2022-10-07T16:41:59.909Z,98878.06
2022-10-07T16:44:26.896Z,98869.63
2022-10-07T16:46:56.907Z,98870.72
2022-10-07T16:49:25.779Z,98868.41
2022-10-07T16:51:53.022Z,98867.28
2022-10-07T16:54:19.963Z,98871.03
2022-10-07T16:56:50.067Z,98865.97
2022-10-07T16:59:23.724Z,98866.38
2022-10-07T17:01:53.147Z,98879.31
2022-10-07T17:04:20.131Z,98881.44
2022-10-07T17:06:47.797Z,98882.03
2022-10-07T17:09:14.576Z,98875.06
2022-10-07T17:11:41.802Z,98878.72
2022-10-07T17:14:11.169Z,98885.97
2022-10-07T17:16:42.196Z,98876.09
2022-10-07T17:19:11.969Z,98882.03
2022-10-07T17:21:40.135Z,98871.69
2022-10-07T17:24:06.631Z,98874.69
2022-10-07T17:26:33.410Z,98875.72
2022-10-07T17:29:02.536Z,98885.28
2022-10-07T17:31:30.849Z,98872.50
2022-10-07T17:33:58.635Z,98873.94
2022-10-07T17:36:26.206Z,98868.81
2022-10-07T17:38:52.991Z,98866.66
2022-10-07T17:41:28.654Z,98865.16
2022-10-07T17:43:57.419Z,98862.25
2022-10-07T17:46:26.073Z,98859.28
2022-10-07T17:48:54.670Z,98853.44
2022-10-07T17:51:22.479Z,98857.13
2022-10-07T17:53:50.367Z,98858.22
2022-10-07T17:56:17.221Z,98856.41
2022-10-07T17:58:45.562Z,98856.78
2022-10-07T18:01:15.267Z,98857.16
2022-10-07T18:03:42.712Z,98853.09
2022-10-07T18:06:10.265Z,98860.78
2022-10-07T18:08:40.566Z,98864.09
2022-10-07T18:11:07.410Z,98855.34
2022-10-07T18:13:52.775Z,98858.97
2022-10-07T18:16:20.759Z,98849.84
2022-10-07T18:18:52.812Z,98852.50
2022-10-07T18:21:20.614Z,98842.50
2022-10-07T18:23:47.066Z,98841.34
2022-10-07T18:26:13.684Z,98838.75
2022-10-07T18:28:40.669Z,98834.56
2022-10-07T18:31:11.759Z,98834.16
2022-10-07T18:33:38.829Z,98834.78
2022-10-07T18:36:11.165Z,98827.13
2022-10-07T18:38:40.742Z,98828.91
2022-10-07T18:41:12.944Z,98832.50
2022-10-07T18:43:40.274Z,98832.41
2022-10-07T18:46:10.426Z,98832.34
2022-10-07T18:48:39.107Z,98832.72
2022-10-07T18:51:06.348Z,98829.34
2022-10-07T18:53:35.479Z,98825.63
2022-10-07T18:56:06.724Z,98828.13
2022-10-07T18:58:37.749Z,98830.22
2022-10-07T19:01:14.153Z,98829.06
2022-10-07T19:03:40.954Z,98825.31
2022-10-07T19:06:20.275Z,98826.00
2022-10-07T19:08:47.025Z,98827.34
2022-10-07T19:11:16.563Z,98818.91
2022-10-07T19:13:56.123Z,98817.03
2022-10-07T19:16:37.449Z,98816.56
2022-10-07T19:19:06.658Z,98824.91
2022-10-07T19:21:34.346Z,98817.47
2022-10-07T19:24:02.280Z,98815.22
2022-10-07T19:26:49.924Z,98812.91
2022-10-07T19:29:17.881Z,98812.09
2022-10-07T19:31:48.556Z,98812.19
2022-10-07T19:34:21.183Z,98809.63
2022-10-07T19:36:48.904Z,98808.22
2022-10-07T19:39:21.055Z,98812.28
2022-10-07T19:41:48.231Z,98808.34
2022-10-07T19:44:15.326Z,98808.66
2022-10-07T19:46:41.742Z,98814.06
2022-10-07T19:49:09.349Z,98797.94
2022-10-07T19:51:37.283Z,98801.88
2022-10-07T19:54:12.995Z,98803.84
2022-10-07T19:56:40.649Z,98796.88
2022-10-07T19:59:09.747Z,98806.59
2022-10-07T20:01:42.075Z,98792.63
2022-10-07T20:04:15.419Z,98796.66
2022-10-07T20:06:42.285Z,98800.44
2022-10-07T20:09:12.017Z,98799.16
2022-10-07T20:11:38.478Z,98799.56
2022-10-07T20:14:05.964Z,98791.28
2022-10-07T20:16:32.663Z,98779.41
2022-10-07T20:19:07.843Z,98786.22
2022-10-07T20:21:36.775Z,98793.16
2022-10-07T20:24:04.579Z,98785.53
2022-10-07T20:26:33.984Z,98785.31
2022-10-07T20:29:02.485Z,98792.53
2022-10-07T20:31:31.790Z,98793.91
2022-10-07T20:33:59.817Z,98789.56
2022-10-07T20:36:28.842Z,98781.47
2022-10-07T20:39:14.971Z,98785.06
2022-10-07T20:41:59.873Z,98778.06
2022-10-07T20:44:26.670Z,98784.19
2022-10-07T20:46:53.147Z,98774.25
2022-10-07T20:49:23.125Z,98775.31
2022-10-07T20:51:54.368Z,98777.00
2022-10-07T20:54:22.749Z,98776.97
2022-10-07T20:56:51.857Z,98766.34
2022-10-07T20:59:18.425Z,98762.63
2022-10-07T21:01:45.270Z,98763.56
2022-10-07T21:04:14.470Z,98762.44
2022-10-07T21:06:41.415Z,98757.69
2022-10-07T21:09:08.677Z,98757.94
2022-10-07T21:11:35.463Z,98746.25
2022-10-07T21:14:02.121Z,98744.31
2022-10-07T21:16:30.468Z,98745.56
2022-10-07T21:18:57.130Z,98742.03
2022-10-07T21:21:24.569Z,98736.03
2022-10-07T21:23:51.552Z,98743.34
2022-10-07T21:26:19.534Z,98743.91
2022-10-07T21:28:48.242Z,98743.91
2022-10-07T21:31:17.448Z,98741.66
2022-10-07T21:33:46.334Z,98742.41
2022-10-07T21:36:17.648Z,98735.25
2022-10-07T21:38:45.061Z,98733.72
2022-10-07T21:41:13.107Z,98729.34
2022-10-07T21:43:40.229Z,98726.72
2022-10-07T21:46:07.119Z,98719.16
2022-10-07T21:48:33.777Z,98730.28
2022-10-07T21:51:04.580Z,98724.44
2022-10-07T21:53:33.697Z,98724.56
2022-10-07T21:56:04.888Z,98722.69
2022-10-07T21:58:32.845Z,98713.09
2022-10-07T22:01:07.363Z,98714.16
2022-10-07T22:03:34.489Z,98711.19
2022-10-07T22:06:05.959Z,98710.31
2022-10-07T22:08:36.450Z,98701.84
2022-10-07T22:11:14.741Z,98703.75
2022-10-07T22:13:53.254Z,98696.69
2022-10-07T22:16:19.947Z,98699.22
2022-10-07T22:18:51.468Z,98693.97
2022-10-07T22:21:26.275Z,98685.03
2022-10-07T22:23:55.375Z,98693.63
2022-10-07T22:26:25.930Z,98689.03
2022-10-07T22:28:52.730Z,98683.88
2022-10-07T22:31:20.235Z,98681.25
2022-10-07T22:33:50.758Z,98680.84
2022-10-07T22:36:17.226Z,98675.78
2022-10-07T22:38:43.617Z,98677.22
2022-10-07T22:41:14.029Z,98680.75
2022-10-07T22:43:44.212Z,98667.69
2022-10-07T22:46:16.945Z,98661.09
2022-10-07T22:48:43.714Z,98664.81
2022-10-07T22:51:12.174Z,98659.72
2022-10-07T22:53:40.914Z,98660.69
2022-10-07T22:56:13.168Z,98658.13
2022-10-07T22:58:41.793Z,98653.03
2022-10-07T23:01:13.694Z,98657.78
2022-10-07T23:03:43.864Z,98653.38
2022-10-07T23:06:18.626Z,98660.31
2022-10-07T23:08:46.876Z,98645.75
2022-10-07T23:11:18.990Z,98640.59
2022-10-07T23:13:48.257Z,98637.28
2022-10-07T23:16:18.047Z,98640.44
2022-10-07T23:18:46.226Z,98644.78
2022-10-07T23:21:18.849Z,98649.78
2022-10-07T23:23:47.491Z,98642.13
2022-10-07T23:26:19.566Z,98636.31
2022-10-07T23:28:53.583Z,98621.38
2022-10-07T23:31:22.013Z,98623.78
2022-10-07T23:33:52.066Z,98628.19
2022-10-07T23:36:20.435Z,98630.28
2022-10-07T23:38:48.785Z,98629.09
2022-10-07T23:41:17.897Z,98627.19
2022-10-07T23:43:44.499Z,98628.03
2022-10-07T23:46:13.451Z,98627.94
2022-10-07T23:48:41.103Z,98618.50
2022-10-07T23:51:08.582Z,98613.56
2022-10-07T23:53:35.159Z,98625.66
2022-10-07T23:56:02.371Z,98626.41
2022-10-07T23:58:34.030Z,98618.84
